sensor_id;sensor_type;location;lat;lon;timestamp;pressure;altitude;pressure_sealevel;temperature;humidity
21086;BME280;34247;50.064;19.970;2023-04-08T00:00:37;99530.72;;;4.38;100.00
21086;BME280;34247;50.064;19.970;2023-04-08T00:01:42;99529.88;;;4.37;100.00
21086;BME280;34247;50.064;19.970;2023-04-08T00:02:46;99535.28;;;4.33;100.00
21086;BME280;34247;50.064;19.970;2023-04-08T00:03:51;99527.31;;;4.36;100.00
21086;BME280;34247;50.064;19.970;2023-04-08T00:04:55;99536.38;;;4.27;100.00
21086;BME280;34247;50.064;19.970;2023-04-08T00:06:00;99533.75;;;4.27;100.00
21086;BME280;34247;50.064;19.970;2023-04-08T00:07:11;99532.91;;;4.27;100.00
21086;BME280;34247;50.064;19.970;2023-04-08T00:08:15;99533.94;;;4.23;100.00
21086;BME280;34247;50.064;19.970;2023-04-08T00:09:19;99530.75;;;4.14;100.00
21086;BME280;34247;50.064;19.970;2023-04-08T00:10:24;99535.88;;;4.18;100.00
21086;BME280;34247;50.064;19.970;2023-04-08T00:11:29;99542.97;;;4.15;100.00
21086;BME280;34247;50.064;19.970;2023-04-08T00:12:45;99537.78;;;4.14;100.00
21086;BME280;34247;50.064;19.970;2023-04-08T00:13:50;99537.88;;;4.11;100.00
21086;BME280;34247;50.064;19.970;2023-04-08T00:14:54;99537.72;;;4.15;100.00
21086;BME280;34247;50.064;19.970;2023-04-08T00:16:02;99537.66;;;4.17;100.00
21086;BME280;34247;50.064;19.970;2023-04-08T00:17:06;99538.41;;;4.21;100.00
21086;BME280;34247;50.064;19.970;2023-04-08T00:18:16;99536.75;;;4.18;100.00
21086;BME280;34247;50.064;19.970;2023-04-08T00:19:22;99541.13;;;4.18;100.00
21086;BME280;34247;50.064;19.970;2023-04-08T00:20:28;99543.03;;;4.14;100.00
21086;BME280;34247;50.064;19.970;2023-04-08T00:21:32;99540.34;;;4.15;100.00
21086;BME280;34247;50.064;19.970;2023-04-08T00:22:36;99538.56;;;4.16;100.00
21086;BME280;34247;50.064;19.970;2023-04-08T00:23:40;99540.19;;;4.20;100.00
21086;BME280;34247;50.064;19.970;2023-04-08T00:24:44;99546.41;;;4.18;100.00
21086;BME280;34247;50.064;19.970;2023-04-08T00:25:48;99537.78;;;4.14;100.00
21086;BME280;34247;50.064;19.970;2023-04-08T00:26:53;99538.72;;;4.13;100.00
21086;BME280;34247;50.064;19.970;2023-04-08T00:28:04;99544.06;;;4.10;100.00
21086;BME280;34247;50.064;19.970;2023-04-08T00:29:10;99541.66;;;4.04;100.00
21086;BME280;34247;50.064;19.970;2023-04-08T00:30:14;99539.88;;;4.04;100.00
21086;BME280;34247;50.064;19.970;2023-04-08T00:31:24;99540.94;;;4.00;100.00
21086;BME280;34247;50.064;19.970;2023-04-08T00:32:28;99543.78;;;3.94;100.00
21086;BME280;34247;50.064;19.970;2023-04-08T00:33:32;99542.75;;;3.98;100.00
21086;BME280;34247;50.064;19.970;2023-04-08T00:34:36;99540.09;;;3.98;100.00
21086;BME280;34247;50.064;19.970;2023-04-08T00:35:41;99560.97;;;4.03;100.00
21086;BME280;34247;50.064;19.970;2023-04-08T00:36:49;99548.06;;;3.97;100.00
21086;BME280;34247;50.064;19.970;2023-04-08T00:37:54;99543.00;;;3.92;100.00
21086;BME280;34247;50.064;19.970;2023-04-08T00:39:04;99548.34;;;3.89;100.00
21086;BME280;34247;50.064;19.970;2023-04-08T00:40:10;99550.09;;;3.88;100.00
21086;BME280;34247;50.064;19.970;2023-04-08T00:41:13;99540.59;;;3.86;100.00
21086;BME280;34247;50.064;19.970;2023-04-08T00:42:19;99545.72;;;3.89;100.00
21086;BME280;34247;50.064;19.970;2023-04-08T00:43:25;99551.09;;;3.86;100.00
21086;BME280;34247;50.064;19.970;2023-04-08T00:44:32;99551.88;;;3.88;100.00
21086;BME280;34247;50.064;19.970;2023-04-08T00:45:37;99548.56;;;3.83;100.00
21086;BME280;34247;50.064;19.970;2023-04-08T00:46:42;99552.28;;;3.77;100.00
21086;BME280;34247;50.064;19.970;2023-04-08T00:47:46;99549.69;;;3.76;100.00
21086;BME280;34247;50.064;19.970;2023-04-08T00:48:58;99555.19;;;3.70;100.00
21086;BME280;34247;50.064;19.970;2023-04-08T00:50:10;99553.34;;;3.72;100.00
21086;BME280;34247;50.064;19.970;2023-04-08T00:51:15;99554.09;;;3.75;100.00
21086;BME280;34247;50.064;19.970;2023-04-08T00:52:21;99550.56;;;3.76;100.00
21086;BME280;34247;50.064;19.970;2023-04-08T00:53:30;99556.69;;;3.77;100.00
21086;BME280;34247;50.064;19.970;2023-04-08T00:54:37;99560.03;;;3.80;100.00
21086;BME280;34247;50.064;19.970;2023-04-08T00:55:41;99559.31;;;3.77;100.00
21086;BME280;34247;50.064;19.970;2023-04-08T00:56:45;99560.19;;;3.76;100.00
21086;BME280;34247;50.064;19.970;2023-04-08T00:57:49;99561.88;;;3.78;100.00
21086;BME280;34247;50.064;19.970;2023-04-08T00:58:53;99561.97;;;3.75;100.00
21086;BME280;34247;50.064;19.970;2023-04-08T01:00:00;99554.94;;;3.76;100.00
21086;BME280;34247;50.064;19.970;2023-04-08T01:01:24;99562.81;;;3.76;100.00
21086;BME280;34247;50.064;19.970;2023-04-08T01:03:23;99555.94;;;3.73;100.00
21086;BME280;34247;50.064;19.970;2023-04-08T01:06:17;99559.16;;;3.56;100.00
21086;BME280;34247;50.064;19.970;2023-04-08T01:07:31;99562.47;;;3.62;100.00
21086;BME280;34247;50.064;19.970;2023-04-08T01:08:39;99560.81;;;3.59;100.00
21086;BME280;34247;50.064;19.970;2023-04-08T01:09:48;99568.63;;;3.60;100.00
21086;BME280;34247;50.064;19.970;2023-04-08T01:11:01;99568.53;;;3.64;100.00
21086;BME280;34247;50.064;19.970;2023-04-08T01:12:30;99569.47;;;3.61;100.00
21086;BME280;34247;50.064;19.970;2023-04-08T01:13:39;99563.28;;;3.64;100.00
21086;BME280;34247;50.064;19.970;2023-04-08T01:14:47;99566.56;;;3.69;100.00
21086;BME280;34247;50.064;19.970;2023-04-08T01:15:53;99569.38;;;3.64;100.00
21086;BME280;34247;50.064;19.970;2023-04-08T01:17:01;99573.81;;;3.62;100.00
21086;BME280;34247;50.064;19.970;2023-04-08T01:18:12;99577.25;;;3.64;100.00
21086;BME280;34247;50.064;19.970;2023-04-08T01:19:30;99567.13;;;3.53;100.00
21086;BME280;34247;50.064;19.970;2023-04-08T01:20:35;99573.28;;;3.52;100.00
21086;BME280;34247;50.064;19.970;2023-04-08T01:21:40;99577.53;;;3.56;100.00
21086;BME280;34247;50.064;19.970;2023-04-08T01:23:42;99574.78;;;3.59;100.00
21086;BME280;34247;50.064;19.970;2023-04-08T01:25:08;99574.78;;;3.59;100.00
21086;BME280;34247;50.064;19.970;2023-04-08T01:26:22;99574.00;;;3.57;100.00
21086;BME280;34247;50.064;19.970;2023-04-08T01:27:30;99572.38;;;3.53;100.00
21086;BME280;34247;50.064;19.970;2023-04-08T01:28:37;99568.84;;;3.54;100.00
21086;BME280;34247;50.064;19.970;2023-04-08T01:29:43;99572.22;;;3.58;100.00
21086;BME280;34247;50.064;19.970;2023-04-08T01:30:51;99572.22;;;3.58;100.00
21086;BME280;34247;50.064;19.970;2023-04-08T01:31:59;99579.13;;;3.60;100.00
21086;BME280;34247;50.064;19.970;2023-04-08T01:33:05;99572.06;;;3.63;100.00
21086;BME280;34247;50.064;19.970;2023-04-08T01:34:12;99568.56;;;3.62;100.00
21086;BME280;34247;50.064;19.970;2023-04-08T01:35:18;99568.47;;;3.65;100.00
21086;BME280;34247;50.064;19.970;2023-04-08T01:36:26;99571.84;;;3.69;100.00
21086;BME280;34247;50.064;19.970;2023-04-08T01:37:32;99568.53;;;3.64;100.00
21086;BME280;34247;50.064;19.970;2023-04-08T01:38:38;99565.84;;;3.65;100.00
21086;BME280;34247;50.064;19.970;2023-04-08T01:39:44;99559.75;;;3.65;100.00
21086;BME280;34247;50.064;19.970;2023-04-08T01:40:49;99572.94;;;3.63;100.00
21086;BME280;34247;50.064;19.970;2023-04-08T01:41:56;99574.50;;;3.67;100.00
21086;BME280;34247;50.064;19.970;2023-04-08T01:43:03;99569.19;;;3.69;100.00
21086;BME280;34247;50.064;19.970;2023-04-08T01:44:15;99574.38;;;3.72;100.00
21086;BME280;34247;50.064;19.970;2023-04-08T01:45:22;99573.56;;;3.70;100.00
21086;BME280;34247;50.064;19.970;2023-04-08T01:46:31;99576.13;;;3.71;100.00
21086;BME280;34247;50.064;19.970;2023-04-08T01:47:37;99569.13;;;3.72;100.00
21086;BME280;34247;50.064;19.970;2023-04-08T01:48:45;99572.69;;;3.69;100.00
21086;BME280;34247;50.064;19.970;2023-04-08T01:49:52;99572.66;;;3.71;100.00
21086;BME280;34247;50.064;19.970;2023-04-08T01:51:01;99573.31;;;3.76;100.00
21086;BME280;34247;50.064;19.970;2023-04-08T01:52:11;99574.25;;;3.75;100.00
21086;BME280;34247;50.064;19.970;2023-04-08T01:53:21;99569.84;;;3.75;100.00
21086;BME280;34247;50.064;19.970;2023-04-08T01:54:26;99574.44;;;3.70;100.00
21086;BME280;34247;50.064;19.970;2023-04-08T01:55:31;99575.38;;;3.68;100.00
21086;BME280;34247;50.064;19.970;2023-04-08T01:56:40;99578.84;;;3.68;100.00
21086;BME280;34247;50.064;19.970;2023-04-08T01:57:51;99579.50;;;3.75;100.00
21086;BME280;34247;50.064;19.970;2023-04-08T01:58:59;99581.13;;;3.79;100.00
21086;BME280;34247;50.064;19.970;2023-04-08T02:00:08;99575.72;;;3.82;100.00
21086;BME280;34247;50.064;19.970;2023-04-08T02:01:17;99579.41;;;3.78;100.00
21086;BME280;34247;50.064;19.970;2023-04-08T02:02:25;99570.59;;;3.79;100.00
21086;BME280;34247;50.064;19.970;2023-04-08T02:03:31;99579.41;;;3.78;100.00
21086;BME280;34247;50.064;19.970;2023-04-08T02:04:37;99578.38;;;3.82;100.00
21086;BME280;34247;50.064;19.970;2023-04-08T02:05:41;99583.63;;;3.82;100.00
21086;BME280;34247;50.064;19.970;2023-04-08T02:06:45;99577.44;;;3.83;100.00
21086;BME280;34247;50.064;19.970;2023-04-08T02:07:50;99577.56;;;3.80;100.00
21086;BME280;34247;50.064;19.970;2023-04-08T02:08:55;99578.28;;;3.85;100.00
21086;BME280;34247;50.064;19.970;2023-04-08T02:10:00;99576.50;;;3.85;100.00
21086;BME280;34247;50.064;19.970;2023-04-08T02:11:13;99579.06;;;3.87;100.00
21086;BME280;34247;50.064;19.970;2023-04-08T02:12:17;99581.63;;;3.88;100.00
21086;BME280;34247;50.064;19.970;2023-04-08T02:13:26;99582.31;;;3.94;100.00
21086;BME280;34247;50.064;19.970;2023-04-08T02:14:33;99581.47;;;3.93;100.00
21086;BME280;34247;50.064;19.970;2023-04-08T02:15:46;99582.97;;;4.00;100.00
21086;BME280;34247;50.064;19.970;2023-04-08T02:17:13;99586.44;;;4.01;100.00
21086;BME280;34247;50.064;19.970;2023-04-08T02:18:25;99579.56;;;3.97;100.00
21086;BME280;34247;50.064;19.970;2023-04-08T02:19:45;99588.38;;;3.96;100.00
21086;BME280;34247;50.064;19.970;2023-04-08T02:22:30;99596.75;;;3.82;100.00
21086;BME280;34247;50.064;19.970;2023-04-08T02:23:49;99591.69;;;3.76;100.00
21086;BME280;34247;50.064;19.970;2023-04-08T02:24:55;99593.38;;;3.78;100.00
21086;BME280;34247;50.064;19.970;2023-04-08T02:26:03;99598.78;;;3.74;100.00
21086;BME280;34247;50.064;19.970;2023-04-08T02:27:12;99594.38;;;3.74;100.00
21086;BME280;34247;50.064;19.970;2023-04-08T02:28:19;99596.09;;;3.75;100.00
21086;BME280;34247;50.064;19.970;2023-04-08T02:29:35;99598.63;;;3.78;100.00
21086;BME280;34247;50.064;19.970;2023-04-08T02:30:53;99596.88;;;3.79;100.00
21086;BME280;34247;50.064;19.970;2023-04-08T02:32:03;99596.00;;;3.78;100.00
21086;BME280;34247;50.064;19.970;2023-04-08T02:33:13;99602.91;;;3.81;100.00
21086;BME280;34247;50.064;19.970;2023-04-08T02:34:23;99598.78;;;3.74;100.00
21086;BME280;34247;50.064;19.970;2023-04-08T02:35:28;99603.03;;;3.78;100.00
21086;BME280;34247;50.064;19.970;2023-04-08T02:36:34;99600.50;;;3.75;100.00
21086;BME280;34247;50.064;19.970;2023-04-08T02:37:39;99583.81;;;3.76;100.00
21086;BME280;34247;50.064;19.970;2023-04-08T02:38:48;99599.75;;;3.71;100.00
21086;BME280;34247;50.064;19.970;2023-04-08T02:39:53;99590.28;;;3.67;100.00
21086;BME280;34247;50.064;19.970;2023-04-08T02:40:58;99598.22;;;3.66;100.00
21086;BME280;34247;50.064;19.970;2023-04-08T02:42:05;99598.31;;;3.63;100.00
21086;BME280;34247;50.064;19.970;2023-04-08T02:43:15;99602.66;;;3.64;100.00
21086;BME280;34247;50.064;19.970;2023-04-08T02:44:23;99597.41;;;3.64;100.00
21086;BME280;34247;50.064;19.970;2023-04-08T02:45:41;99600.06;;;3.62;100.00
21086;BME280;34247;50.064;19.970;2023-04-08T02:46:46;99598.47;;;3.58;100.00
21086;BME280;34247;50.064;19.970;2023-04-08T02:47:53;99600.31;;;3.56;100.00
21086;BME280;34247;50.064;19.970;2023-04-08T02:48:58;99601.03;;;3.59;100.00
21086;BME280;34247;50.064;19.970;2023-04-08T02:50:26;99600.13;;;3.60;100.00
21086;BME280;34247;50.064;19.970;2023-04-08T02:51:30;99599.00;;;3.68;100.00
21086;BME280;34247;50.064;19.970;2023-04-08T02:52:44;99603.34;;;3.69;100.00
21086;BME280;34247;50.064;19.970;2023-04-08T02:53:48;99596.31;;;3.69;100.00
21086;BME280;34247;50.064;19.970;2023-04-08T02:54:52;99600.63;;;3.72;100.00
21086;BME280;34247;50.064;19.970;2023-04-08T02:55:56;99604.25;;;3.68;100.00
21086;BME280;34247;50.064;19.970;2023-04-08T02:57:00;99606.88;;;3.68;100.00
21086;BME280;34247;50.064;19.970;2023-04-08T02:58:15;99605.22;;;3.65;100.00
21086;BME280;34247;50.064;19.970;2023-04-08T02:59:19;99605.09;;;3.68;100.00
21086;BME280;34247;50.064;19.970;2023-04-08T03:00:23;99608.66;;;3.67;100.00
21086;BME280;34247;50.064;19.970;2023-04-08T03:01:28;99603.50;;;3.64;100.00
21086;BME280;34247;50.064;19.970;2023-04-08T03:02:32;99602.53;;;3.67;100.00
21086;BME280;34247;50.064;19.970;2023-04-08T03:03:36;99603.41;;;3.67;100.00
21086;BME280;34247;50.064;19.970;2023-04-08T03:04:45;99604.38;;;3.65;100.00
21086;BME280;34247;50.064;19.970;2023-04-08T03:05:49;99600.84;;;3.66;100.00
21086;BME280;34247;50.064;19.970;2023-04-08T03:06:53;99605.16;;;3.67;100.00
21086;BME280;34247;50.064;19.970;2023-04-08T03:07:57;99607.69;;;3.70;100.00
21086;BME280;34247;50.064;19.970;2023-04-08T03:09:04;99612.84;;;3.73;100.00
21086;BME280;34247;50.064;19.970;2023-04-08T03:10:30;99606.66;;;3.74;100.00
21086;BME280;34247;50.064;19.970;2023-04-08T03:11:38;99618.22;;;3.70;100.00
21086;BME280;34247;50.064;19.970;2023-04-08T03:12:47;99612.94;;;3.70;100.00
21086;BME280;34247;50.064;19.970;2023-04-08T03:13:51;99621.63;;;3.72;100.00
21086;BME280;34247;50.064;19.970;2023-04-08T03:14:55;99624.25;;;3.72;100.00
21086;BME280;34247;50.064;19.970;2023-04-08T03:16:00;99614.75;;;3.68;100.00
21086;BME280;34247;50.064;19.970;2023-04-08T03:17:08;99613.09;;;3.65;100.00
21086;BME280;34247;50.064;19.970;2023-04-08T03:18:12;99618.22;;;3.68;100.00
21086;BME280;34247;50.064;19.970;2023-04-08T03:19:21;99617.09;;;3.75;100.00
21086;BME280;34247;50.064;19.970;2023-04-08T03:20:25;99615.31;;;3.77;100.00
21086;BME280;34247;50.064;19.970;2023-04-08T03:21:30;99619.78;;;3.74;100.00
21086;BME280;34247;50.064;19.970;2023-04-08T03:22:35;99612.56;;;3.80;100.00
21086;BME280;34247;50.064;19.970;2023-04-08T03:23:43;99620.38;;;3.82;100.00
21086;BME280;34247;50.064;19.970;2023-04-08T03:24:47;99616.16;;;3.78;100.00
21086;BME280;34247;50.064;19.970;2023-04-08T03:25:51;99614.22;;;3.83;100.00
21086;BME280;34247;50.064;19.970;2023-04-08T03:26:59;99616.03;;;3.81;100.00
21086;BME280;34247;50.064;19.970;2023-04-08T03:28:05;99619.59;;;3.80;100.00
21086;BME280;34247;50.064;19.970;2023-04-08T03:29:18;99627.59;;;3.77;100.00
21086;BME280;34247;50.064;19.970;2023-04-08T03:30:24;99618.09;;;3.73;100.00
21086;BME280;34247;50.064;19.970;2023-04-08T03:31:29;99618.16;;;3.71;100.00
21086;BME280;34247;50.064;19.970;2023-04-08T03:32:37;99620.78;;;3.71;100.00
21086;BME280;34247;50.064;19.970;2023-04-08T03:33:44;99623.28;;;3.74;100.00
21086;BME280;34247;50.064;19.970;2023-04-08T03:34:48;99626.97;;;3.69;100.00
21086;BME280;34247;50.064;19.970;2023-04-08T03:36:00;99626.97;;;3.69;100.00
21086;BME280;34247;50.064;19.970;2023-04-08T03:37:05;99622.84;;;3.62;100.00
21086;BME280;34247;50.064;19.970;2023-04-08T03:38:10;99620.34;;;3.58;100.00
21086;BME280;34247;50.064;19.970;2023-04-08T03:39:14;99622.81;;;3.63;100.00
21086;BME280;34247;50.064;19.970;2023-04-08T03:40:21;99626.38;;;3.60;100.00
21086;BME280;34247;50.064;19.970;2023-04-08T03:41:31;99627.19;;;3.63;100.00
21086;BME280;34247;50.064;19.970;2023-04-08T03:42:35;99630.81;;;3.58;100.00
21086;BME280;34247;50.064;19.970;2023-04-08T03:43:39;99630.69;;;3.63;100.00
21086;BME280;34247;50.064;19.970;2023-04-08T03:44:43;99633.13;;;3.68;100.00
21086;BME280;34247;50.064;19.970;2023-04-08T03:45:47;99629.81;;;3.63;100.00
21086;BME280;34247;50.064;19.970;2023-04-08T03:46:51;99634.19;;;3.62;100.00
21086;BME280;34247;50.064;19.970;2023-04-08T03:47:55;99628.91;;;3.64;100.00
21086;BME280;34247;50.064;19.970;2023-04-08T03:48:59;99629.84;;;3.61;100.00
21086;BME280;34247;50.064;19.970;2023-04-08T03:50:04;99639.50;;;3.60;100.00
21086;BME280;34247;50.064;19.970;2023-04-08T03:51:08;99633.31;;;3.63;100.00
21086;BME280;34247;50.064;19.970;2023-04-08T03:52:12;99634.84;;;3.69;100.00
21086;BME280;34247;50.064;19.970;2023-04-08T03:53:19;99638.28;;;3.71;100.00
21086;BME280;34247;50.064;19.970;2023-04-08T03:54:23;99639.81;;;3.76;100.00
21086;BME280;34247;50.064;19.970;2023-04-08T03:55:32;99633.69;;;3.77;100.00
21086;BME280;34247;50.064;19.970;2023-04-08T03:56:36;99639.03;;;3.74;100.00
21086;BME280;34247;50.064;19.970;2023-04-08T03:57:40;99635.50;;;3.75;100.00
21086;BME280;34247;50.064;19.970;2023-04-08T03:58:44;99650.09;;;3.84;100.00
21086;BME280;34247;50.064;19.970;2023-04-08T03:59:48;99649.91;;;3.88;100.00
21086;BME280;34247;50.064;19.970;2023-04-08T04:00:53;99643.72;;;3.91;100.00
21086;BME280;34247;50.064;19.970;2023-04-08T04:02:00;99650.63;;;3.94;100.00
21086;BME280;34247;50.064;19.970;2023-04-08T04:03:06;99651.47;;;3.94;100.00
21086;BME280;34247;50.064;19.970;2023-04-08T04:04:11;99650.41;;;4.00;100.00
21086;BME280;34247;50.064;19.970;2023-04-08T04:05:19;99653.94;;;3.99;100.00
21086;BME280;34247;50.064;19.970;2023-04-08T04:06:25;99647.22;;;3.90;100.00
21086;BME280;34247;50.064;19.970;2023-04-08T04:07:31;99653.50;;;3.86;100.00
21086;BME280;34247;50.064;19.970;2023-04-08T04:08:41;99656.34;;;3.80;100.00
21086;BME280;34247;50.064;19.970;2023-04-08T04:09:45;99658.19;;;3.78;100.00
21086;BME280;34247;50.064;19.970;2023-04-08T04:10:52;99654.97;;;3.70;100.00
21086;BME280;34247;50.064;19.970;2023-04-08T04:12:04;99657.63;;;3.68;100.00
21086;BME280;34247;50.064;19.970;2023-04-08T04:13:08;99662.88;;;3.68;100.00
21086;BME280;34247;50.064;19.970;2023-04-08T04:14:12;99670.72;;;3.70;100.00
21086;BME280;34247;50.064;19.970;2023-04-08T04:15:22;99667.19;;;3.71;100.00
21086;BME280;34247;50.064;19.970;2023-04-08T04:16:28;99670.59;;;3.73;100.00
21086;BME280;34247;50.064;19.970;2023-04-08T04:17:36;99665.22;;;3.76;100.00
21086;BME280;34247;50.064;19.970;2023-04-08T04:18:41;99672.22;;;3.77;100.00
21086;BME280;34247;50.064;19.970;2023-04-08T04:19:46;99667.75;;;3.79;100.00
21086;BME280;34247;50.064;19.970;2023-04-08T04:20:51;99674.84;;;3.77;100.00
21086;BME280;34247;50.064;19.970;2023-04-08T04:21:55;99673.16;;;3.74;100.00
21086;BME280;34247;50.064;19.970;2023-04-08T04:23:00;99677.69;;;3.69;100.00
21086;BME280;34247;50.064;19.970;2023-04-08T04:24:04;99675.91;;;3.71;100.00
21086;BME280;34247;50.064;19.970;2023-04-08T04:25:13;99678.63;;;3.68;100.00
21086;BME280;34247;50.064;19.970;2023-04-08T04:26:20;99674.34;;;3.66;100.00
21086;BME280;34247;50.064;19.970;2023-04-08T04:27:25;99673.47;;;3.65;100.00
21086;BME280;34247;50.064;19.970;2023-04-08T04:28:29;99677.88;;;3.65;100.00
21086;BME280;34247;50.064;19.970;2023-04-08T04:29:40;99680.38;;;3.68;100.00
21086;BME280;34247;50.064;19.970;2023-04-08T04:30:53;99682.22;;;3.66;100.00
21086;BME280;34247;50.064;19.970;2023-04-08T04:32:06;99679.59;;;3.66;100.00
21086;BME280;34247;50.064;19.970;2023-04-08T04:33:11;99680.31;;;3.69;100.00
21086;BME280;34247;50.064;19.970;2023-04-08T04:34:16;99690.63;;;3.75;100.00
21086;BME280;34247;50.064;19.970;2023-04-08T04:35:20;99681.81;;;3.78;100.00
21086;BME280;34247;50.064;19.970;2023-04-08T04:36:24;99687.97;;;3.77;100.00
21086;BME280;34247;50.064;19.970;2023-04-08T04:37:28;99686.22;;;3.76;100.00
21086;BME280;34247;50.064;19.970;2023-04-08T04:38:38;99686.16;;;3.79;100.00
21086;BME280;34247;50.064;19.970;2023-04-08T04:39:49;99687.09;;;3.76;100.00
21086;BME280;34247;50.064;19.970;2023-04-08T04:41:00;99693.31;;;3.74;100.00
21086;BME280;34247;50.064;19.970;2023-04-08T04:42:04;99693.25;;;3.75;100.00
21086;BME280;34247;50.064;19.970;2023-04-08T04:43:13;99698.63;;;3.72;100.00
21086;BME280;34247;50.064;19.970;2023-04-08T04:44:19;99686.47;;;3.70;100.00
21086;BME280;34247;50.064;19.970;2023-04-08T04:45:23;99693.47;;;3.69;100.00
21086;BME280;34247;50.064;19.970;2023-04-08T04:46:28;99691.66;;;3.71;100.00
21086;BME280;34247;50.064;19.970;2023-04-08T04:47:32;99694.22;;;3.73;100.00
21086;BME280;34247;50.064;19.970;2023-04-08T04:48:36;99691.53;;;3.74;100.00
21086;BME280;34247;50.064;19.970;2023-04-08T04:49:40;99693.44;;;3.71;100.00
21086;BME280;34247;50.064;19.970;2023-04-08T04:51:00;99706.34;;;3.77;100.00
21086;BME280;34247;50.064;19.970;2023-04-08T04:52:11;99701.91;;;3.79;100.00
21086;BME280;34247;50.064;19.970;2023-04-08T04:53:15;99698.34;;;3.80;100.00
21086;BME280;34247;50.064;19.970;2023-04-08T04:54:23;99700.94;;;3.81;100.00
21086;BME280;34247;50.064;19.970;2023-04-08T04:55:27;99702.50;;;3.87;100.00
21086;BME280;34247;50.064;19.970;2023-04-08T04:56:31;99697.44;;;3.81;100.00
21086;BME280;34247;50.064;19.970;2023-04-08T04:57:35;99707.03;;;3.82;100.00
21086;BME280;34247;50.064;19.970;2023-04-08T04:58:39;99699.97;;;3.84;100.00
21086;BME280;34247;50.064;19.970;2023-04-08T04:59:43;99705.13;;;3.87;100.00
21086;BME280;34247;50.064;19.970;2023-04-08T05:00:46;99712.16;;;3.86;100.00
21086;BME280;34247;50.064;19.970;2023-04-08T05:01:50;99715.75;;;3.84;100.00
21086;BME280;34247;50.064;19.970;2023-04-08T05:02:54;99713.91;;;3.86;100.00
21086;BME280;34247;50.064;19.970;2023-04-08T05:03:58;99717.34;;;3.88;100.00
21086;BME280;34247;50.064;19.970;2023-04-08T05:05:02;99705.84;;;3.91;100.00
21086;BME280;34247;50.064;19.970;2023-04-08T05:06:06;99715.50;;;3.90;100.00
21086;BME280;34247;50.064;19.970;2023-04-08T05:07:10;99709.25;;;3.94;100.00
21086;BME280;34247;50.064;19.970;2023-04-08T05:08:16;99713.72;;;3.92;100.00
21086;BME280;34247;50.064;19.970;2023-04-08T05:09:20;99710.25;;;3.90;100.00
21086;BME280;34247;50.064;19.970;2023-04-08T05:10:24;99705.00;;;3.90;100.00
21086;BME280;34247;50.064;19.970;2023-04-08T05:11:29;99714.63;;;3.91;100.00
21086;BME280;34247;50.064;19.970;2023-04-08T05:12:35;99711.09;;;3.91;100.00
21086;BME280;34247;50.064;19.970;2023-04-08T05:13:41;99707.75;;;3.87;100.00
21086;BME280;34247;50.064;19.970;2023-04-08T05:14:45;99711.09;;;3.91;100.00
21086;BME280;34247;50.064;19.970;2023-04-08T05:15:49;99717.00;;;3.97;100.00
21086;BME280;34247;50.064;19.970;2023-04-08T05:16:53;99723.03;;;4.01;100.00
21086;BME280;34247;50.064;19.970;2023-04-08T05:17:57;99715.94;;;4.03;100.00
21086;BME280;34247;50.064;19.970;2023-04-08T05:19:01;99719.56;;;4.00;100.00
21086;BME280;34247;50.064;19.970;2023-04-08T05:20:08;99727.31;;;4.03;100.00
21086;BME280;34247;50.064;19.970;2023-04-08T05:21:13;99730.84;;;4.02;100.00
21086;BME280;34247;50.064;19.970;2023-04-08T05:22:18;99728.09;;;4.05;100.00
21086;BME280;34247;50.064;19.970;2023-04-08T05:23:22;99731.66;;;4.04;100.00
21086;BME280;34247;50.064;19.970;2023-04-08T05:24:26;99728.88;;;4.09;100.00
21086;BME280;34247;50.064;19.970;2023-04-08T05:25:30;99734.06;;;4.10;100.00
21086;BME280;34247;50.064;19.970;2023-04-08T05:26:36;99724.63;;;4.05;100.00
21086;BME280;34247;50.064;19.970;2023-04-08T05:27:41;99719.34;;;4.06;100.00
21086;BME280;34247;50.064;19.970;2023-04-08T05:28:45;99727.25;;;4.05;100.00
21086;BME280;34247;50.064;19.970;2023-04-08T05:29:49;99732.34;;;4.09;100.00
21086;BME280;34247;50.064;19.970;2023-04-08T05:30:53;99732.34;;;4.09;100.00
21086;BME280;34247;50.064;19.970;2023-04-08T05:31:58;99740.13;;;4.12;100.00
21086;BME280;34247;50.064;19.970;2023-04-08T05:33:01;99732.25;;;4.12;100.00
21086;BME280;34247;50.064;19.970;2023-04-08T05:34:06;99734.72;;;4.17;100.00
21086;BME280;34247;50.064;19.970;2023-04-08T05:35:10;99732.88;;;4.19;100.00
21086;BME280;34247;50.064;19.970;2023-04-08T05:36:14;99734.56;;;4.22;100.00
21086;BME280;34247;50.064;19.970;2023-04-08T05:37:18;99737.19;;;4.22;100.00
21086;BME280;34247;50.064;19.970;2023-04-08T05:38:24;99745.16;;;4.19;100.00
21086;BME280;34247;50.064;19.970;2023-04-08T05:39:29;99725.91;;;4.18;100.00
21086;BME280;34247;50.064;19.970;2023-04-08T05:40:34;99742.34;;;4.25;100.00
21086;BME280;34247;50.064;19.970;2023-04-08T05:41:42;99740.41;;;4.30;100.00
21086;BME280;34247;50.064;19.970;2023-04-08T05:42:46;99742.25;;;4.28;100.00
21086;BME280;34247;50.064;19.970;2023-04-08T05:43:50;99735.25;;;4.27;100.00
21086;BME280;34247;50.064;19.970;2023-04-08T05:44:54;99740.28;;;4.33;100.00
21086;BME280;34247;50.064;19.970;2023-04-08T05:45:59;99738.47;;;4.35;100.00
21086;BME280;34247;50.064;19.970;2023-04-08T05:47:10;99743.75;;;4.35;100.00
21086;BME280;34247;50.064;19.970;2023-04-08T05:48:15;99740.00;;;4.40;100.00
21086;BME280;34247;50.064;19.970;2023-04-08T05:49:19;99744.34;;;4.41;100.00
21086;BME280;34247;50.064;19.970;2023-04-08T05:50:23;99746.72;;;4.49;100.00
21086;BME280;34247;50.064;19.970;2023-04-08T05:51:27;99751.75;;;4.55;100.00
21086;BME280;34247;50.064;19.970;2023-04-08T05:52:31;99750.59;;;4.62;100.00
21086;BME280;34247;50.064;19.970;2023-04-08T05:53:35;99749.59;;;4.66;100.00
21086;BME280;34247;50.064;19.970;2023-04-08T05:54:49;99752.22;;;4.66;100.00